sensor_id;sensor_type;location;lat;lon;timestamp;temperature;humidity
6518;DHT22;3292;48.944;9.240;2023-08-12T00:00:11;20.10;99.90
6518;DHT22;3292;48.944;9.240;2023-08-12T00:02:38;20.00;99.90
6518;DHT22;3292;48.944;9.240;2023-08-12T00:05:06;20.00;99.90
6518;DHT22;3292;48.944;9.240;2023-08-12T00:07:33;20.00;99.90
6518;DHT22;3292;48.944;9.240;2023-08-12T00:10:01;20.00;99.90
6518;DHT22;3292;48.944;9.240;2023-08-12T00:12:29;19.90;99.90
6518;DHT22;3292;48.944;9.240;2023-08-12T00:14:58;19.90;99.90
6518;DHT22;3292;48.944;9.240;2023-08-12T00:17:25;19.90;99.90
6518;DHT22;3292;48.944;9.240;2023-08-12T00:19:52;19.80;99.90
6518;DHT22;3292;48.944;9.240;2023-08-12T00:22:19;19.80;99.90
6518;DHT22;3292;48.944;9.240;2023-08-12T00:24:45;19.80;99.90
6518;DHT22;3292;48.944;9.240;2023-08-12T00:27:12;19.70;99.90
6518;DHT22;3292;48.944;9.240;2023-08-12T00:29:39;19.70;99.90
6518;DHT22;3292;48.944;9.240;2023-08-12T00:32:08;19.70;99.90
6518;DHT22;3292;48.944;9.240;2023-08-12T00:34:35;19.70;99.90
6518;DHT22;3292;48.944;9.240;2023-08-12T00:37:02;19.60;99.90
6518;DHT22;3292;48.944;9.240;2023-08-12T00:39:29;19.60;99.90
6518;DHT22;3292;48.944;9.240;2023-08-12T00:41:56;19.60;99.90
6518;DHT22;3292;48.944;9.240;2023-08-12T00:44:23;19.40;99.90
6518;DHT22;3292;48.944;9.240;2023-08-12T00:46:49;19.40;99.90
6518;DHT22;3292;48.944;9.240;2023-08-12T00:49:18;19.30;99.90
6518;DHT22;3292;48.944;9.240;2023-08-12T00:51:45;19.30;99.90
6518;DHT22;3292;48.944;9.240;2023-08-12T00:54:14;19.30;99.90
6518;DHT22;3292;48.944;9.240;2023-08-12T00:56:41;19.30;99.90
6518;DHT22;3292;48.944;9.240;2023-08-12T00:59:09;19.30;99.90
6518;DHT22;3292;48.944;9.240;2023-08-12T01:01:39;19.40;99.90
6518;DHT22;3292;48.944;9.240;2023-08-12T01:04:07;19.30;99.90
6518;DHT22;3292;48.944;9.240;2023-08-12T01:06:35;19.30;99.90
6518;DHT22;3292;48.944;9.240;2023-08-12T01:09:03;19.30;99.90
6518;DHT22;3292;48.944;9.240;2023-08-12T01:11:36;19.20;99.90
6518;DHT22;3292;48.944;9.240;2023-08-12T01:14:08;19.20;99.90
6518;DHT22;3292;48.944;9.240;2023-08-12T01:16:42;19.20;99.90
6518;DHT22;3292;48.944;9.240;2023-08-12T01:19:11;19.20;99.90
6518;DHT22;3292;48.944;9.240;2023-08-12T01:21:44;19.20;99.90
6518;DHT22;3292;48.944;9.240;2023-08-12T01:24:13;19.20;99.90
6518;DHT22;3292;48.944;9.240;2023-08-12T01:26:40;19.20;99.90
6518;DHT22;3292;48.944;9.240;2023-08-12T01:29:07;19.10;99.90
6518;DHT22;3292;48.944;9.240;2023-08-12T01:31:38;19.10;99.90
6518;DHT22;3292;48.944;9.240;2023-08-12T01:34:11;19.10;99.90
6518;DHT22;3292;48.944;9.240;2023-08-12T01:36:40;19.10;99.90
6518;DHT22;3292;48.944;9.240;2023-08-12T01:39:10;19.10;99.90
6518;DHT22;3292;48.944;9.240;2023-08-12T01:41:39;19.00;99.90
6518;DHT22;3292;48.944;9.240;2023-08-12T01:44:06;19.00;99.90
6518;DHT22;3292;48.944;9.240;2023-08-12T01:46:33;19.00;99.90
6518;DHT22;3292;48.944;9.240;2023-08-12T01:49:00;19.00;99.90
6518;DHT22;3292;48.944;9.240;2023-08-12T01:51:26;19.00;99.90
6518;DHT22;3292;48.944;9.240;2023-08-12T01:53:53;19.00;99.90
6518;DHT22;3292;48.944;9.240;2023-08-12T01:56:20;19.00;99.90
6518;DHT22;3292;48.944;9.240;2023-08-12T01:58:48;18.90;99.90
6518;DHT22;3292;48.944;9.240;2023-08-12T02:01:15;18.90;99.90
6518;DHT22;3292;48.944;9.240;2023-08-12T02:03:42;18.90;99.90
6518;DHT22;3292;48.944;9.240;2023-08-12T02:06:09;18.90;99.90
6518;DHT22;3292;48.944;9.240;2023-08-12T02:08:35;18.80;99.90
6518;DHT22;3292;48.944;9.240;2023-08-12T02:11:02;18.80;99.90
6518;DHT22;3292;48.944;9.240;2023-08-12T02:13:29;18.80;99.90
6518;DHT22;3292;48.944;9.240;2023-08-12T02:15:57;18.80;99.90
6518;DHT22;3292;48.944;9.240;2023-08-12T02:18:24;18.70;99.90
6518;DHT22;3292;48.944;9.240;2023-08-12T02:20:51;18.70;99.90
6518;DHT22;3292;48.944;9.240;2023-08-12T02:23:18;18.70;99.90
6518;DHT22;3292;48.944;9.240;2023-08-12T02:25:45;18.80;99.90
6518;DHT22;3292;48.944;9.240;2023-08-12T02:28:11;18.80;99.90
6518;DHT22;3292;48.944;9.240;2023-08-12T02:30:38;18.80;99.90
6518;DHT22;3292;48.944;9.240;2023-08-12T02:33:06;18.80;99.90
6518;DHT22;3292;48.944;9.240;2023-08-12T02:35:33;18.80;99.90
6518;DHT22;3292;48.944;9.240;2023-08-12T02:38:00;18.90;99.90
6518;DHT22;3292;48.944;9.240;2023-08-12T02:40:26;18.90;99.90
6518;DHT22;3292;48.944;9.240;2023-08-12T02:42:53;18.90;99.90
6518;DHT22;3292;48.944;9.240;2023-08-12T02:45:20;18.90;99.90
6518;DHT22;3292;48.944;9.240;2023-08-12T02:47:47;18.90;99.90
6518;DHT22;3292;48.944;9.240;2023-08-12T02:50:15;18.90;99.90
6518;DHT22;3292;48.944;9.240;2023-08-12T02:52:42;18.90;99.90
6518;DHT22;3292;48.944;9.240;2023-08-12T02:55:09;18.90;99.90
6518;DHT22;3292;48.944;9.240;2023-08-12T02:57:35;18.90;99.90
6518;DHT22;3292;48.944;9.240;2023-08-12T03:00:02;18.90;99.90
6518;DHT22;3292;48.944;9.240;2023-08-12T03:02:31;19.00;99.90
6518;DHT22;3292;48.944;9.240;2023-08-12T03:04:57;19.00;99.90
6518;DHT22;3292;48.944;9.240;2023-08-12T03:07:25;19.00;99.90
6518;DHT22;3292;48.944;9.240;2023-08-12T03:09:52;19.00;99.90
6518;DHT22;3292;48.944;9.240;2023-08-12T03:12:19;19.00;99.90
6518;DHT22;3292;48.944;9.240;2023-08-12T03:14:46;19.00;99.90
6518;DHT22;3292;48.944;9.240;2023-08-12T03:17:12;19.00;99.90
6518;DHT22;3292;48.944;9.240;2023-08-12T03:19:39;19.00;99.90
6518;DHT22;3292;48.944;9.240;2023-08-12T03:22:06;19.10;99.90
6518;DHT22;3292;48.944;9.240;2023-08-12T03:24:34;19.10;99.90
6518;DHT22;3292;48.944;9.240;2023-08-12T03:27:01;19.20;99.90
6518;DHT22;3292;48.944;9.240;2023-08-12T03:29:28;19.20;99.90
6518;DHT22;3292;48.944;9.240;2023-08-12T03:31:55;19.20;99.90
6518;DHT22;3292;48.944;9.240;2023-08-12T03:34:21;19.20;99.90
6518;DHT22;3292;48.944;9.240;2023-08-12T03:36:48;19.20;99.90
6518;DHT22;3292;48.944;9.240;2023-08-12T03:39:16;19.10;99.90
6518;DHT22;3292;48.944;9.240;2023-08-12T03:41:44;19.10;99.90
6518;DHT22;3292;48.944;9.240;2023-08-12T03:44:11;19.10;99.90
6518;DHT22;3292;48.944;9.240;2023-08-12T03:46:37;19.10;99.90
6518;DHT22;3292;48.944;9.240;2023-08-12T03:49:04;19.00;99.90
6518;DHT22;3292;48.944;9.240;2023-08-12T03:51:31;19.10;99.90
6518;DHT22;3292;48.944;9.240;2023-08-12T03:53:58;19.10;99.90
6518;DHT22;3292;48.944;9.240;2023-08-12T03:56:25;19.10;99.90
6518;DHT22;3292;48.944;9.240;2023-08-12T03:58:53;19.10;99.90
6518;DHT22;3292;48.944;9.240;2023-08-12T04:01:20;19.10;99.90
6518;DHT22;3292;48.944;9.240;2023-08-12T04:03:47;19.10;99.90
6518;DHT22;3292;48.944;9.240;2023-08-12T04:06:13;19.10;99.90
6518;DHT22;3292;48.944;9.240;2023-08-12T04:08:40;19.10;99.90
6518;DHT22;3292;48.944;9.240;2023-08-12T04:11:07;19.10;99.90
6518;DHT22;3292;48.944;9.240;2023-08-12T04:13:34;19.10;99.90
6518;DHT22;3292;48.944;9.240;2023-08-12T04:16:02;19.20;99.90
6518;DHT22;3292;48.944;9.240;2023-08-12T04:18:29;19.30;99.90
6518;DHT22;3292;48.944;9.240;2023-08-12T04:20:56;19.30;99.90
6518;DHT22;3292;48.944;9.240;2023-08-12T04:23:23;19.30;99.90
6518;DHT22;3292;48.944;9.240;2023-08-12T04:25:51;19.30;99.90
6518;DHT22;3292;48.944;9.240;2023-08-12T04:28:18;19.30;99.90
6518;DHT22;3292;48.944;9.240;2023-08-12T04:30:46;19.20;99.90
6518;DHT22;3292;48.944;9.240;2023-08-12T04:33:17;19.30;99.90
6518;DHT22;3292;48.944;9.240;2023-08-12T04:35:45;19.30;99.90
6518;DHT22;3292;48.944;9.240;2023-08-12T04:38:12;19.30;99.90
6518;DHT22;3292;48.944;9.240;2023-08-12T04:40:39;19.20;99.90
6518;DHT22;3292;48.944;9.240;2023-08-12T04:43:06;19.20;99.90
6518;DHT22;3292;48.944;9.240;2023-08-12T04:45:33;19.10;99.90
6518;DHT22;3292;48.944;9.240;2023-08-12T04:48:00;19.10;99.90
6518;DHT22;3292;48.944;9.240;2023-08-12T04:50:31;19.10;99.90
6518;DHT22;3292;48.944;9.240;2023-08-12T04:53:00;19.10;99.90
6518;DHT22;3292;48.944;9.240;2023-08-12T04:55:27;19.10;99.90
6518;DHT22;3292;48.944;9.240;2023-08-12T04:57:54;19.20;99.90
6518;DHT22;3292;48.944;9.240;2023-08-12T05:00:21;19.20;99.90
6518;DHT22;3292;48.944;9.240;2023-08-12T05:02:48;19.20;99.90
6518;DHT22;3292;48.944;9.240;2023-08-12T05:05:15;19.30;99.90
6518;DHT22;3292;48.944;9.240;2023-08-12T05:07:43;19.30;99.90
6518;DHT22;3292;48.944;9.240;2023-08-12T05:10:14;19.30;99.90
6518;DHT22;3292;48.944;9.240;2023-08-12T05:12:41;19.40;99.90
6518;DHT22;3292;48.944;9.240;2023-08-12T05:15:09;19.40;99.90
6518;DHT22;3292;48.944;9.240;2023-08-12T05:17:36;19.50;99.90
6518;DHT22;3292;48.944;9.240;2023-08-12T05:20:04;19.50;99.90
6518;DHT22;3292;48.944;9.240;2023-08-12T05:22:31;19.50;99.90
6518;DHT22;3292;48.944;9.240;2023-08-12T05:24:59;19.60;99.90
6518;DHT22;3292;48.944;9.240;2023-08-12T05:27:26;19.60;99.90
6518;DHT22;3292;48.944;9.240;2023-08-12T05:29:52;19.60;99.90
6518;DHT22;3292;48.944;9.240;2023-08-12T05:32:19;19.70;99.90
6518;DHT22;3292;48.944;9.240;2023-08-12T05:34:46;19.80;99.90
6518;DHT22;3292;48.944;9.240;2023-08-12T05:37:15;19.70;99.90
6518;DHT22;3292;48.944;9.240;2023-08-12T05:39:42;19.70;99.90
6518;DHT22;3292;48.944;9.240;2023-08-12T05:42:10;19.80;99.90
6518;DHT22;3292;48.944;9.240;2023-08-12T05:44:37;19.80;99.90
6518;DHT22;3292;48.944;9.240;2023-08-12T05:47:04;19.80;99.90
6518;DHT22;3292;48.944;9.240;2023-08-12T05:49:31;19.80;99.90
6518;DHT22;3292;48.944;9.240;2023-08-12T05:51:57;19.90;99.90
6518;DHT22;3292;48.944;9.240;2023-08-12T05:54:24;19.90;99.90
6518;DHT22;3292;48.944;9.240;2023-08-12T05:56:51;19.90;99.90
6518;DHT22;3292;48.944;9.240;2023-08-12T05:59:19;19.90;99.90
6518;DHT22;3292;48.944;9.240;2023-08-12T06:01:46;20.00;99.90
6518;DHT22;3292;48.944;9.240;2023-08-12T06:04:13;20.00;99.90
6518;DHT22;3292;48.944;9.240;2023-08-12T06:06:40;20.10;99.90
6518;DHT22;3292;48.944;9.240;2023-08-12T06:09:06;20.10;99.90
6518;DHT22;3292;48.944;9.240;2023-08-12T06:11:33;20.20;99.90
6518;DHT22;3292;48.944;9.240;2023-08-12T06:14:00;20.20;99.90
6518;DHT22;3292;48.944;9.240;2023-08-12T06:16:28;20.20;99.90
6518;DHT22;3292;48.944;9.240;2023-08-12T06:18:55;20.20;99.90
6518;DHT22;3292;48.944;9.240;2023-08-12T06:21:22;20.10;99.90
6518;DHT22;3292;48.944;9.240;2023-08-12T06:23:48;20.10;99.90
6518;DHT22;3292;48.944;9.240;2023-08-12T06:26:15;20.10;99.90
6518;DHT22;3292;48.944;9.240;2023-08-12T06:28:42;19.90;99.90
6518;DHT22;3292;48.944;9.240;2023-08-12T06:31:09;19.90;99.90
6518;DHT22;3292;48.944;9.240;2023-08-12T06:33:37;19.90;99.90
6518;DHT22;3292;48.944;9.240;2023-08-12T06:36:05;19.90;99.90
6518;DHT22;3292;48.944;9.240;2023-08-12T06:38:32;19.90;99.90
6518;DHT22;3292;48.944;9.240;2023-08-12T06:40:59;19.80;99.90
6518;DHT22;3292;48.944;9.240;2023-08-12T06:43:25;20.00;99.90
6518;DHT22;3292;48.944;9.240;2023-08-12T06:45:52;20.00;99.90
6518;DHT22;3292;48.944;9.240;2023-08-12T06:48:19;20.00;99.90
6518;DHT22;3292;48.944;9.240;2023-08-12T06:50:53;20.10;99.90
6518;DHT22;3292;48.944;9.240;2023-08-12T06:53:19;20.20;99.90
6518;DHT22;3292;48.944;9.240;2023-08-12T06:55:46;20.30;99.90
6518;DHT22;3292;48.944;9.240;2023-08-12T06:58:13;20.40;99.90
6518;DHT22;3292;48.944;9.240;2023-08-12T07:00:40;20.50;99.90
6518;DHT22;3292;48.944;9.240;2023-08-12T07:03:07;20.60;99.90
6518;DHT22;3292;48.944;9.240;2023-08-12T07:05:34;20.70;99.90
6518;DHT22;3292;48.944;9.240;2023-08-12T07:08:03;20.70;99.90
6518;DHT22;3292;48.944;9.240;2023-08-12T07:10:29;20.90;99.90
6518;DHT22;3292;48.944;9.240;2023-08-12T07:12:56;21.00;99.90
6518;DHT22;3292;48.944;9.240;2023-08-12T07:15:23;21.00;99.90
6518;DHT22;3292;48.944;9.240;2023-08-12T07:17:50;21.20;99.90
6518;DHT22;3292;48.944;9.240;2023-08-12T07:20:17;21.30;99.90
6518;DHT22;3292;48.944;9.240;2023-08-12T07:22:43;21.60;99.90
6518;DHT22;3292;48.944;9.240;2023-08-12T07:25:12;21.90;99.90
6518;DHT22;3292;48.944;9.240;2023-08-12T07:27:38;22.30;99.90
6518;DHT22;3292;48.944;9.240;2023-08-12T07:30:06;22.70;99.90
6518;DHT22;3292;48.944;9.240;2023-08-12T07:32:35;22.80;99.90
6518;DHT22;3292;48.944;9.240;2023-08-12T07:35:03;22.80;99.90
6518;DHT22;3292;48.944;9.240;2023-08-12T07:37:31;23.10;99.90
6518;DHT22;3292;48.944;9.240;2023-08-12T07:39:58;23.30;99.90
6518;DHT22;3292;48.944;9.240;2023-08-12T07:42:26;23.40;99.90
6518;DHT22;3292;48.944;9.240;2023-08-12T07:44:53;23.50;99.90
6518;DHT22;3292;48.944;9.240;2023-08-12T07:47:20;23.60;99.90
6518;DHT22;3292;48.944;9.240;2023-08-12T07:49:46;23.60;99.90
6518;DHT22;3292;48.944;9.240;2023-08-12T07:52:13;23.90;99.90
6518;DHT22;3292;48.944;9.240;2023-08-12T07:54:40;24.10;99.90
6518;DHT22;3292;48.944;9.240;2023-08-12T07:57:07;24.50;99.90
6518;DHT22;3292;48.944;9.240;2023-08-12T07:59:35;24.90;99.90
6518;DHT22;3292;48.944;9.240;2023-08-12T08:02:02;25.10;99.90
6518;DHT22;3292;48.944;9.240;2023-08-12T08:04:28;25.20;99.90
6518;DHT22;3292;48.944;9.240;2023-08-12T08:06:55;25.50;99.90
6518;DHT22;3292;48.944;9.240;2023-08-12T08:09:22;25.80;99.90
6518;DHT22;3292;48.944;9.240;2023-08-12T08:11:49;25.70;99.90
6518;DHT22;3292;48.944;9.240;2023-08-12T08:14:15;26.00;99.90
6518;DHT22;3292;48.944;9.240;2023-08-12T08:16:44;26.30;99.90
6518;DHT22;3292;48.944;9.240;2023-08-12T08:19:11;26.50;99.90
6518;DHT22;3292;48.944;9.240;2023-08-12T08:21:37;26.60;99.90
6518;DHT22;3292;48.944;9.240;2023-08-12T08:24:05;26.90;99.90
6518;DHT22;3292;48.944;9.240;2023-08-12T08:26:31;26.90;99.90
6518;DHT22;3292;48.944;9.240;2023-08-12T08:28:58;27.00;99.90
6518;DHT22;3292;48.944;9.240;2023-08-12T08:31:25;27.10;99.90
6518;DHT22;3292;48.944;9.240;2023-08-12T08:33:53;26.70;99.90
6518;DHT22;3292;48.944;9.240;2023-08-12T08:36:20;26.80;99.90
6518;DHT22;3292;48.944;9.240;2023-08-12T08:38:47;26.90;99.90
6518;DHT22;3292;48.944;9.240;2023-08-12T08:41:14;27.00;99.90
6518;DHT22;3292;48.944;9.240;2023-08-12T08:43:42;27.00;99.90
6518;DHT22;3292;48.944;9.240;2023-08-12T08:46:11;26.80;99.90
6518;DHT22;3292;48.944;9.240;2023-08-12T08:48:39;26.80;99.90
6518;DHT22;3292;48.944;9.240;2023-08-12T08:51:08;27.20;99.90
6518;DHT22;3292;48.944;9.240;2023-08-12T08:53:37;27.60;99.90
6518;DHT22;3292;48.944;9.240;2023-08-12T08:56:05;27.70;99.90
6518;DHT22;3292;48.944;9.240;2023-08-12T08:58:32;28.00;99.90
6518;DHT22;3292;48.944;9.240;2023-08-12T09:00:59;28.30;99.90
6518;DHT22;3292;48.944;9.240;2023-08-12T09:03:26;28.50;99.90
6518;DHT22;3292;48.944;9.240;2023-08-12T09:05:55;28.10;99.90
6518;DHT22;3292;48.944;9.240;2023-08-12T09:08:24;27.50;99.90
6518;DHT22;3292;48.944;9.240;2023-08-12T09:10:52;27.40;99.90
6518;DHT22;3292;48.944;9.240;2023-08-12T09:13:19;27.80;99.90
6518;DHT22;3292;48.944;9.240;2023-08-12T09:15:46;28.00;99.90
6518;DHT22;3292;48.944;9.240;2023-08-12T09:18:13;28.10;99.90
6518;DHT22;3292;48.944;9.240;2023-08-12T09:20:40;28.40;99.90
6518;DHT22;3292;48.944;9.240;2023-08-12T09:23:09;28.60;99.90
6518;DHT22;3292;48.944;9.240;2023-08-12T09:25:41;28.70;99.90
6518;DHT22;3292;48.944;9.240;2023-08-12T09:28:10;28.80;99.90
6518;DHT22;3292;48.944;9.240;2023-08-12T09:30:38;29.00;99.90
6518;DHT22;3292;48.944;9.240;2023-08-12T09:33:06;29.10;99.90
6518;DHT22;3292;48.944;9.240;2023-08-12T09:35:34;29.40;99.90
6518;DHT22;3292;48.944;9.240;2023-08-12T09:38:03;29.20;99.90
6518;DHT22;3292;48.944;9.240;2023-08-12T09:40:31;29.40;99.90
6518;DHT22;3292;48.944;9.240;2023-08-12T09:42:59;29.30;99.90
6518;DHT22;3292;48.944;9.240;2023-08-12T09:45:26;29.40;99.90
6518;DHT22;3292;48.944;9.240;2023-08-12T09:47:54;29.30;99.90
6518;DHT22;3292;48.944;9.240;2023-08-12T09:50:21;29.40;99.90
6518;DHT22;3292;48.944;9.240;2023-08-12T09:52:49;29.50;99.90
6518;DHT22;3292;48.944;9.240;2023-08-12T09:55:17;29.60;99.90
6518;DHT22;3292;48.944;9.240;2023-08-12T09:57:48;29.90;99.90
6518;DHT22;3292;48.944;9.240;2023-08-12T10:00:17;29.70;99.90
6518;DHT22;3292;48.944;9.240;2023-08-12T10:02:45;30.10;99.90
6518;DHT22;3292;48.944;9.240;2023-08-12T10:05:16;30.30;99.90
6518;DHT22;3292;48.944;9.240;2023-08-12T10:07:45;30.40;99.90
6518;DHT22;3292;48.944;9.240;2023-08-12T10:10:14;30.60;99.90
6518;DHT22;3292;48.944;9.240;2023-08-12T10:12:41;30.30;99.90
6518;DHT22;3292;48.944;9.240;2023-08-12T10:15:10;30.20;99.90
6518;DHT22;3292;48.944;9.240;2023-08-12T10:17:39;30.20;99.90
6518;DHT22;3292;48.944;9.240;2023-08-12T10:20:08;30.00;99.90
6518;DHT22;3292;48.944;9.240;2023-08-12T10:22:35;29.70;99.90
6518;DHT22;3292;48.944;9.240;2023-08-12T10:25:03;29.70;99.90
6518;DHT22;3292;48.944;9.240;2023-08-12T10:27:30;29.60;99.90
6518;DHT22;3292;48.944;9.240;2023-08-12T10:29:57;29.60;99.90
6518;DHT22;3292;48.944;9.240;2023-08-12T10:32:24;29.70;99.90
6518;DHT22;3292;48.944;9.240;2023-08-12T10:34:57;29.70;99.90
6518;DHT22;3292;48.944;9.240;2023-08-12T10:37:25;29.70;99.90
6518;DHT22;3292;48.944;9.240;2023-08-12T10:39:52;29.70;99.90
6518;DHT22;3292;48.944;9.240;2023-08-12T10:42:47;29.50;99.90
6518;DHT22;3292;48.944;9.240;2023-08-12T10:45:15;29.30;99.90
6518;DHT22;3292;48.944;9.240;2023-08-12T10:47:43;29.10;99.90
6518;DHT22;3292;48.944;9.240;2023-08-12T10:50:18;29.10;99.90
6518;DHT22;3292;48.944;9.240;2023-08-12T10:52:45;29.30;99.90
6518;DHT22;3292;48.944;9.240;2023-08-12T10:55:20;29.50;99.90
6518;DHT22;3292;48.944;9.240;2023-08-12T10:57:48;29.70;99.90
6518;DHT22;3292;48.944;9.240;2023-08-12T11:00:16;29.90;99.90
6518;DHT22;3292;48.944;9.240;2023-08-12T11:02:49;30.20;99.90
6518;DHT22;3292;48.944;9.240;2023-08-12T11:05:18;30.50;99.90
6518;DHT22;3292;48.944;9.240;2023-08-12T11:07:47;30.80;99.90
6518;DHT22;3292;48.944;9.240;2023-08-12T11:10:16;31.10;99.90
6518;DHT22;3292;48.944;9.240;2023-08-12T11:12:49;31.20;99.90
6518;DHT22;3292;48.944;9.240;2023-08-12T11:15:29;31.20;99.90
6518;DHT22;3292;48.944;9.240;2023-08-12T11:17:58;31.30;99.90
6518;DHT22;3292;48.944;9.240;2023-08-12T11:20:27;31.40;99.90
6518;DHT22;3292;48.944;9.240;2023-08-12T11:22:55;31.20;99.90
6518;DHT22;3292;48.944;9.240;2023-08-12T11:25:24;31.50;99.90
6518;DHT22;3292;48.944;9.240;2023-08-12T11:27:51;31.70;99.90
6518;DHT22;3292;48.944;9.240;2023-08-12T11:30:20;32.00;99.90
6518;DHT22;3292;48.944;9.240;2023-08-12T11:32:50;32.20;99.90
6518;DHT22;3292;48.944;9.240;2023-08-12T11:35:18;32.30;99.90
6518;DHT22;3292;48.944;9.240;2023-08-12T11:37:47;32.50;99.90
6518;DHT22;3292;48.944;9.240;2023-08-12T11:40:16;32.20;99.90
6518;DHT22;3292;48.944;9.240;2023-08-12T11:42:45;32.10;99.90
6518;DHT22;3292;48.944;9.240;2023-08-12T11:45:14;31.90;99.90
6518;DHT22;3292;48.944;9.240;2023-08-12T11:47:41;31.70;99.90
6518;DHT22;3292;48.944;9.240;2023-08-12T11:50:10;31.30;99.90
6518;DHT22;3292;48.944;9.240;2023-08-12T11:52:38;31.00;99.90
6518;DHT22;3292;48.944;9.240;2023-08-12T11:55:07;30.80;99.90
6518;DHT22;3292;48.944;9.240;2023-08-12T11:57:34;30.60;99.90
6518;DHT22;3292;48.944;9.240;2023-08-12T12:00:04;30.30;99.90
6518;DHT22;3292;48.944;9.240;2023-08-12T12:02:37;30.00;99.90
6518;DHT22;3292;48.944;9.240;2023-08-12T12:05:07;28.20;99.90
6518;DHT22;3292;48.944;9.240;2023-08-12T12:07:34;24.80;99.90
6518;DHT22;3292;48.944;9.240;2023-08-12T12:10:01;23.00;99.90
6518;DHT22;3292;48.944;9.240;2023-08-12T12:12:29;22.00;99.90
6518;DHT22;3292;48.944;9.240;2023-08-12T12:14:56;20.30;99.90
6518;DHT22;3292;48.944;9.240;2023-08-12T12:17:23;19.80;99.90
6518;DHT22;3292;48.944;9.240;2023-08-12T12:19:53;20.20;99.90
6518;DHT22;3292;48.944;9.240;2023-08-12T12:22:26;20.40;99.90
6518;DHT22;3292;48.944;9.240;2023-08-12T12:24:54;20.60;99.90
6518;DHT22;3292;48.944;9.240;2023-08-12T12:27:21;20.70;99.90
6518;DHT22;3292;48.944;9.240;2023-08-12T12:29:49;20.80;99.90
6518;DHT22;3292;48.944;9.240;2023-08-12T12:32:18;20.90;99.90
6518;DHT22;3292;48.944;9.240;2023-08-12T12:34:45;21.10;99.90
6518;DHT22;3292;48.944;9.240;2023-08-12T12:37:12;21.20;99.90
6518;DHT22;3292;48.944;9.240;2023-08-12T12:39:39;21.20;99.90
6518;DHT22;3292;48.944;9.240;2023-08-12T12:42:06;21.10;99.90
6518;DHT22;3292;48.944;9.240;2023-08-12T12:44:32;21.00;99.90
6518;DHT22;3292;48.944;9.240;2023-08-12T12:47:00;21.00;99.90
6518;DHT22;3292;48.944;9.240;2023-08-12T12:49:27;21.00;99.90
6518;DHT22;3292;48.944;9.240;2023-08-12T12:51:54;21.00;99.90
6518;DHT22;3292;48.944;9.240;2023-08-12T12:54:21;20.90;99.90
6518;DHT22;3292;48.944;9.240;2023-08-12T12:56:48;20.90;99.90
6518;DHT22;3292;48.944;9.240;2023-08-12T12:59:15;21.10;99.90
6518;DHT22;3292;48.944;9.240;2023-08-12T13:01:43;21.20;99.90
6518;DHT22;3292;48.944;9.240;2023-08-12T13:04:11;21.20;99.90
6518;DHT22;3292;48.944;9.240;2023-08-12T13:06:38;21.10;99.90
6518;DHT22;3292;48.944;9.240;2023-08-12T13:09:05;20.90;99.90
6518;DHT22;3292;48.944;9.240;2023-08-12T13:11:33;21.00;99.90
6518;DHT22;3292;48.944;9.240;2023-08-12T13:14:00;21.00;99.90
6518;DHT22;3292;48.944;9.240;2023-08-12T13:16:27;21.20;99.90
6518;DHT22;3292;48.944;9.240;2023-08-12T13:18:54;21.20;99.90
6518;DHT22;3292;48.944;9.240;2023-08-12T13:21:22;21.20;99.90
6518;DHT22;3292;48.944;9.240;2023-08-12T13:23:49;21.20;99.90
6518;DHT22;3292;48.944;9.240;2023-08-12T13:26:16;21.40;99.90
6518;DHT22;3292;48.944;9.240;2023-08-12T13:28:43;21.50;99.90
6518;DHT22;3292;48.944;9.240;2023-08-12T13:31:10;21.70;99.90
6518;DHT22;3292;48.944;9.240;2023-08-12T13:33:37;21.80;99.90
6518;DHT22;3292;48.944;9.240;2023-08-12T13:36:04;21.80;99.90
6518;DHT22;3292;48.944;9.240;2023-08-12T13:38:34;21.90;99.90
6518;DHT22;3292;48.944;9.240;2023-08-12T13:41:01;21.80;99.90
6518;DHT22;3292;48.944;9.240;2023-08-12T13:43:28;21.70;99.90
6518;DHT22;3292;48.944;9.240;2023-08-12T13:45:55;21.50;99.90
6518;DHT22;3292;48.944;9.240;2023-08-12T13:48:22;21.50;99.90
6518;DHT22;3292;48.944;9.240;2023-08-12T13:50:49;21.60;99.90
6518;DHT22;3292;48.944;9.240;2023-08-12T13:53:17;21.70;99.90
6518;DHT22;3292;48.944;9.240;2023-08-12T13:55:46;21.70;99.90
6518;DHT22;3292;48.944;9.240;2023-08-12T13:58:13;21.80;99.90
6518;DHT22;3292;48.944;9.240;2023-08-12T14:00:40;22.00;99.90
6518;DHT22;3292;48.944;9.240;2023-08-12T14:03:07;22.30;99.90
6518;DHT22;3292;48.944;9.240;2023-08-12T14:05:34;22.50;99.90
6518;DHT22;3292;48.944;9.240;2023-08-12T14:08:01;22.70;99.90
6518;DHT22;3292;48.944;9.240;2023-08-12T14:10:27;22.80;99.90
6518;DHT22;3292;48.944;9.240;2023-08-12T14:12:55;22.80;99.90
6518;DHT22;3292;48.944;9.240;2023-08-12T14:15:22;22.90;99.90
6518;DHT22;3292;48.944;9.240;2023-08-12T14:17:49;23.00;99.90
6518;DHT22;3292;48.944;9.240;2023-08-12T14:20:16;23.20;99.90
6518;DHT22;3292;48.944;9.240;2023-08-12T14:22:44;23.30;99.90
6518;DHT22;3292;48.944;9.240;2023-08-12T14:25:10;23.40;99.90
6518;DHT22;3292;48.944;9.240;2023-08-12T14:27:37;23.40;99.90
6518;DHT22;3292;48.944;9.240;2023-08-12T14:30:07;23.50;99.90
6518;DHT22;3292;48.944;9.240;2023-08-12T14:32:34;23.80;99.90
6518;DHT22;3292;48.944;9.240;2023-08-12T14:35:01;23.90;99.90
6518;DHT22;3292;48.944;9.240;2023-08-12T14:37:27;23.90;99.90
6518;DHT22;3292;48.944;9.240;2023-08-12T14:39:54;23.80;99.90
6518;DHT22;3292;48.944;9.240;2023-08-12T14:42:21;23.90;99.90
6518;DHT22;3292;48.944;9.240;2023-08-12T14:44:48;24.00;99.90
6518;DHT22;3292;48.944;9.240;2023-08-12T14:47:16;24.10;99.90
6518;DHT22;3292;48.944;9.240;2023-08-12T14:49:44;24.20;99.90
6518;DHT22;3292;48.944;9.240;2023-08-12T14:52:16;24.30;99.90
6518;DHT22;3292;48.944;9.240;2023-08-12T14:54:44;24.20;99.90
6518;DHT22;3292;48.944;9.240;2023-08-12T14:57:11;24.30;99.90
6518;DHT22;3292;48.944;9.240;2023-08-12T14:59:38;24.40;99.90
6518;DHT22;3292;48.944;9.240;2023-08-12T15:02:05;24.60;99.90
6518;DHT22;3292;48.944;9.240;2023-08-12T15:04:33;24.70;99.90
6518;DHT22;3292;48.944;9.240;2023-08-12T15:07:00;24.70;99.90
6518;DHT22;3292;48.944;9.240;2023-08-12T15:09:27;24.50;99.90
6518;DHT22;3292;48.944;9.240;2023-08-12T15:11:54;24.50;99.90
6518;DHT22;3292;48.944;9.240;2023-08-12T15:14:21;24.40;99.90
6518;DHT22;3292;48.944;9.240;2023-08-12T15:16:47;24.30;99.90
6518;DHT22;3292;48.944;9.240;2023-08-12T15:19:14;24.20;99.90
6518;DHT22;3292;48.944;9.240;2023-08-12T15:21:42;24.20;99.90
6518;DHT22;3292;48.944;9.240;2023-08-12T15:24:09;24.20;99.90
6518;DHT22;3292;48.944;9.240;2023-08-12T15:26:36;24.10;99.90
6518;DHT22;3292;48.944;9.240;2023-08-12T15:29:03;24.00;99.90
6518;DHT22;3292;48.944;9.240;2023-08-12T15:31:30;23.90;99.90
6518;DHT22;3292;48.944;9.240;2023-08-12T15:33:56;23.90;99.90
6518;DHT22;3292;48.944;9.240;2023-08-12T15:36:23;23.90;99.90
6518;DHT22;3292;48.944;9.240;2023-08-12T15:38:51;23.90;99.90
6518;DHT22;3292;48.944;9.240;2023-08-12T15:41:19;23.90;99.90
6518;DHT22;3292;48.944;9.240;2023-08-12T15:43:47;23.80;99.90
6518;DHT22;3292;48.944;9.240;2023-08-12T15:46:14;23.80;99.90
6518;DHT22;3292;48.944;9.240;2023-08-12T15:48:41;23.70;99.90
6518;DHT22;3292;48.944;9.240;2023-08-12T15:51:08;23.60;99.90
6518;DHT22;3292;48.944;9.240;2023-08-12T15:53:35;23.60;99.90
6518;DHT22;3292;48.944;9.240;2023-08-12T15:56:04;23.60;99.90
6518;DHT22;3292;48.944;9.240;2023-08-12T15:58:30;23.50;99.90
6518;DHT22;3292;48.944;9.240;2023-08-12T16:00:57;23.50;99.90
6518;DHT22;3292;48.944;9.240;2023-08-12T16:03:25;23.40;99.90